createdAt,value
2018-04-09T00:00:02.736Z,983.09
2018-04-09T00:01:02.746Z,983.10
2018-04-09T00:02:02.707Z,983.12
2018-04-09T00:03:02.682Z,983.12
2018-04-09T00:04:02.691Z,983.08
2018-04-09T00:05:02.675Z,983.10
2018-04-09T00:06:02.658Z,983.09
2018-04-09T00:07:02.610Z,983.05
2018-04-09T00:08:02.573Z,983.08
2018-04-09T00:09:02.592Z,983.06
2018-04-09T00:10:02.532Z,983.08
2018-04-09T00:11:02.557Z,983.07
2018-04-09T00:12:02.559Z,983.06
2018-04-09T00:13:02.489Z,983.04
2018-04-09T00:14:02.465Z,983.04
2018-04-09T00:15:02.459Z,983.07
2018-04-09T00:16:02.460Z,983.09
2018-04-09T00:17:02.440Z,983.13
2018-04-09T00:18:02.383Z,983.08
2018-04-09T00:19:02.357Z,983.13
2018-04-09T00:20:02.336Z,983.11
2018-04-09T00:21:02.347Z,983.06
2018-04-09T00:22:02.305Z,983.10
2018-04-09T00:23:02.296Z,983.14
2018-04-09T00:24:02.339Z,983.08
2018-04-09T00:25:02.242Z,983.09
2018-04-09T00:26:02.202Z,983.09
2018-04-09T00:27:02.201Z,983.07
2018-04-09T00:28:02.211Z,983.11
2018-04-09T00:29:02.176Z,983.08
2018-04-09T00:30:02.165Z,983.05
2018-04-09T00:31:02.125Z,983.05
2018-04-09T00:32:02.109Z,983.06
2018-04-09T00:33:02.105Z,983.06
2018-04-09T00:34:02.055Z,983.06
2018-04-09T00:35:02.042Z,983.06
2018-04-09T00:36:02.021Z,983.05
2018-04-09T00:37:02.028Z,983.08
2018-04-09T00:38:02.030Z,983.04
2018-04-09T00:39:01.973Z,983.06
2018-04-09T00:40:01.943Z,983.07
2018-04-09T00:41:01.924Z,983.05
2018-04-09T00:42:01.919Z,983.04
2018-04-09T00:43:01.865Z,983.03
2018-04-09T00:44:02.501Z,983.06
2018-04-09T00:45:01.842Z,983.02
2018-04-09T00:46:01.857Z,983.07
2018-04-09T00:47:01.813Z,983.04
2018-04-09T00:48:01.760Z,983.05
2018-04-09T00:49:01.765Z,983.02
2018-04-09T00:50:01.744Z,983.02
2018-04-09T00:51:01.741Z,983.02
2018-04-09T00:52:01.698Z,983.03
2018-04-09T00:53:01.697Z,983.01
2018-04-09T00:54:01.650Z,982.95
2018-04-09T00:55:01.639Z,982.95
2018-04-09T00:56:01.643Z,982.96
2018-04-09T00:57:01.597Z,982.94
2018-04-09T00:58:01.569Z,982.95
2018-04-09T00:59:01.538Z,982.92
2018-04-09T01:00:01.524Z,982.92
2018-04-09T01:01:01.515Z,982.92
2018-04-09T01:02:01.499Z,982.92
2018-04-09T01:03:01.464Z,982.92
2018-04-09T01:04:01.455Z,982.91
2018-04-09T01:05:01.444Z,982.91
2018-04-09T01:06:01.417Z,982.93
2018-04-09T01:07:01.394Z,982.87
2018-04-09T01:08:01.395Z,982.90
2018-04-09T01:09:01.348Z,982.85
2018-04-09T01:10:01.348Z,982.83
2018-04-09T01:11:01.304Z,982.89
2018-04-09T01:12:01.286Z,982.87
2018-04-09T01:13:01.270Z,982.87
2018-04-09T01:14:01.259Z,982.90
2018-04-09T01:15:01.208Z,982.89
2018-04-09T01:16:01.188Z,982.93
2018-04-09T01:17:01.186Z,982.94
2018-04-09T01:18:01.178Z,982.95
2018-04-09T01:19:01.161Z,982.94
2018-04-09T01:20:01.130Z,982.93
2018-04-09T01:21:01.102Z,982.96
2018-04-09T01:22:01.080Z,982.90
2018-04-09T01:23:01.061Z,982.93
2018-04-09T01:24:01.039Z,982.96
2018-04-09T01:25:01.029Z,982.93
2018-04-09T01:26:01.024Z,982.93
2018-04-09T01:27:00.961Z,982.92
2018-04-09T01:28:00.958Z,982.96
2018-04-09T01:29:00.930Z,982.93
2018-04-09T01:30:00.938Z,982.88
2018-04-09T01:31:00.911Z,982.88
2018-04-09T01:32:00.886Z,982.86
2018-04-09T01:33:00.852Z,982.83
2018-04-09T01:34:00.868Z,982.82
2018-04-09T01:35:00.819Z,982.81
2018-04-09T01:36:00.812Z,982.79
2018-04-09T01:37:00.769Z,982.77
2018-04-09T01:38:00.760Z,982.77
2018-04-09T01:39:00.738Z,982.75
2018-04-09T01:40:00.708Z,982.76
2018-04-09T01:41:00.691Z,982.75
2018-04-09T01:42:00.698Z,982.76
2018-04-09T01:43:00.677Z,982.75
2018-04-09T01:44:00.627Z,982.77
2018-04-09T01:45:00.618Z,982.75
2018-04-09T01:46:00.630Z,982.73
2018-04-09T01:47:00.601Z,982.75
2018-04-09T01:48:00.585Z,982.74
2018-04-09T01:49:00.585Z,982.75
2018-04-09T01:50:00.524Z,982.74
2018-04-09T01:51:00.487Z,982.74
2018-04-09T01:52:00.456Z,982.76
2018-04-09T01:53:00.477Z,982.74
2018-04-09T01:54:00.444Z,982.68
2018-04-09T01:55:00.416Z,982.67
2018-04-09T01:56:00.368Z,982.68
2018-04-09T01:57:00.379Z,982.65
2018-04-09T01:58:00.363Z,982.64
2018-04-09T01:59:00.315Z,982.62
2018-04-09T02:00:00.295Z,982.62
2018-04-09T02:01:00.287Z,982.58
2018-04-09T02:02:00.274Z,982.60
2018-04-09T02:03:00.226Z,982.56
2018-04-09T02:04:00.272Z,982.58
2018-04-09T02:05:00.201Z,982.58
2018-04-09T02:06:00.198Z,982.56
2018-04-09T02:07:00.160Z,982.58
2018-04-09T02:08:00.153Z,982.60
2018-04-09T02:09:00.131Z,982.64
2018-04-09T02:10:00.102Z,982.59
2018-04-09T02:11:00.074Z,982.55
2018-04-09T02:12:00.059Z,982.57
2018-04-09T02:13:00.050Z,982.57
2018-04-09T02:14:00.015Z,982.54
2018-04-09T02:15:00.017Z,982.59
2018-04-09T02:15:59.972Z,982.50
2018-04-09T02:16:59.958Z,982.52
2018-04-09T02:17:59.944Z,982.55
2018-04-09T02:18:59.908Z,982.54
2018-04-09T02:19:59.925Z,982.55
2018-04-09T02:20:59.869Z,982.50
2018-04-09T02:21:59.860Z,982.53
2018-04-09T02:22:59.823Z,982.57
2018-04-09T02:23:59.840Z,982.55
2018-04-09T02:24:59.814Z,982.57
2018-04-09T02:25:59.776Z,982.58
2018-04-09T02:26:59.750Z,982.60
2018-04-09T02:27:59.734Z,982.62
2018-04-09T02:28:59.715Z,982.60
2018-04-09T02:29:59.681Z,982.59
2018-04-09T02:30:59.675Z,982.60
2018-04-09T02:31:59.642Z,982.63
2018-04-09T02:32:59.618Z,982.61
2018-04-09T02:33:59.595Z,982.62
2018-04-09T02:34:59.588Z,982.62
2018-04-09T02:35:59.558Z,982.61
2018-04-09T02:37:00.500Z,982.59
2018-04-09T02:37:59.548Z,982.60
2018-04-09T02:38:59.511Z,982.59
2018-04-09T02:39:59.470Z,982.54
2018-04-09T02:40:59.480Z,982.57
2018-04-09T02:41:59.449Z,982.58
2018-04-09T02:42:59.420Z,982.56
2018-04-09T02:43:59.387Z,982.53
2018-04-09T02:44:59.383Z,982.55
2018-04-09T02:45:59.369Z,982.53
2018-04-09T02:46:59.368Z,982.54
2018-04-09T02:47:59.307Z,982.50
2018-04-09T02:48:59.279Z,982.53
2018-04-09T02:49:59.257Z,982.54
2018-04-09T02:50:59.248Z,982.51
2018-04-09T02:51:59.231Z,982.57
2018-04-09T02:52:59.214Z,982.57
2018-04-09T02:53:59.188Z,982.57
2018-04-09T02:54:59.215Z,982.60
2018-04-09T02:55:59.152Z,982.59
2018-04-09T02:56:59.119Z,982.58
2018-04-09T02:57:59.129Z,982.62
2018-04-09T02:58:59.091Z,982.61
2018-04-09T02:59:59.082Z,982.62
2018-04-09T03:00:59.031Z,982.64
2018-04-09T03:01:59.041Z,982.63
2018-04-09T03:02:58.994Z,982.65
2018-04-09T03:03:58.976Z,982.65
2018-04-09T03:04:58.974Z,982.65
2018-04-09T03:05:59.554Z,982.66
2018-04-09T03:06:58.905Z,982.66
2018-04-09T03:07:58.890Z,982.67
2018-04-09T03:08:58.903Z,982.67
2018-04-09T03:09:58.879Z,982.67
2018-04-09T03:10:58.828Z,982.67
2018-04-09T03:11:58.823Z,982.69
2018-04-09T03:12:58.828Z,982.70
2018-04-09T03:13:58.802Z,982.66
2018-04-09T03:14:58.750Z,982.72
2018-04-09T03:15:58.760Z,982.69
2018-04-09T03:16:58.692Z,982.69
2018-04-09T03:17:58.719Z,982.68
2018-04-09T03:18:58.672Z,982.71
2018-04-09T03:19:58.751Z,982.72
2018-04-09T03:20:58.648Z,982.73
2018-04-09T03:21:58.605Z,982.75
2018-04-09T03:22:58.581Z,982.76
2018-04-09T03:23:58.592Z,982.76
2018-04-09T03:24:58.863Z,982.74
2018-04-09T03:25:58.517Z,982.77
2018-04-09T03:26:59.053Z,982.74
2018-04-09T03:27:58.471Z,982.74
2018-04-09T03:28:58.518Z,982.73
2018-04-09T03:29:58.459Z,982.75
2018-04-09T03:30:58.461Z,982.79
2018-04-09T03:31:58.397Z,982.71
2018-04-09T03:32:58.437Z,982.77
2018-04-09T03:33:58.385Z,982.75
2018-04-09T03:34:58.335Z,982.75
2018-04-09T03:35:58.335Z,982.72
2018-04-09T03:36:58.338Z,982.71
2018-04-09T03:37:58.268Z,982.69
2018-04-09T03:38:58.267Z,982.73
2018-04-09T03:39:58.256Z,982.69
2018-04-09T03:40:58.201Z,982.68
2018-04-09T03:41:58.178Z,982.67
2018-04-09T03:42:58.159Z,982.64
2018-04-09T03:43:58.128Z,982.68
2018-04-09T03:44:58.155Z,982.65
2018-04-09T03:45:58.111Z,982.69
2018-04-09T03:46:58.066Z,982.64
2018-04-09T03:47:58.050Z,982.64
2018-04-09T03:48:58.086Z,982.65
2018-04-09T03:49:58.034Z,982.64
2018-04-09T03:50:57.998Z,982.66
2018-04-09T03:51:57.979Z,982.66
2018-04-09T03:52:57.956Z,982.71
2018-04-09T03:53:57.928Z,982.72
2018-04-09T03:54:58.329Z,982.72
2018-04-09T03:55:57.908Z,982.74
2018-04-09T03:56:57.899Z,982.75
2018-04-09T03:57:57.852Z,982.73
2018-04-09T03:58:57.821Z,982.70
2018-04-09T03:59:57.806Z,982.67
2018-04-09T04:00:57.766Z,982.66
2018-04-09T04:01:57.813Z,982.62
2018-04-09T04:02:57.744Z,982.57
2018-04-09T04:03:57.748Z,982.55
2018-04-09T04:04:57.742Z,982.52
2018-04-09T04:05:57.676Z,982.53
2018-04-09T04:06:57.652Z,982.53
2018-04-09T04:07:57.644Z,982.53
2018-04-09T04:08:57.628Z,982.54
2018-04-09T04:09:57.605Z,982.51
2018-04-09T04:10:57.564Z,982.49
2018-04-09T04:11:57.558Z,982.49
2018-04-09T04:12:57.596Z,982.49
2018-04-09T04:13:57.546Z,982.52
2018-04-09T04:14:57.507Z,982.50
2018-04-09T04:15:57.460Z,982.53
2018-04-09T04:16:57.433Z,982.56
2018-04-09T04:17:57.458Z,982.53
2018-04-09T04:18:57.413Z,982.52
2018-04-09T04:19:57.369Z,982.52
2018-04-09T04:20:57.382Z,982.50
2018-04-09T04:21:57.324Z,982.50
2018-04-09T04:22:57.338Z,982.51
2018-04-09T04:23:57.329Z,982.50
2018-04-09T04:24:57.312Z,982.46
2018-04-09T04:25:57.303Z,982.49
2018-04-09T04:26:57.241Z,982.52
2018-04-09T04:27:57.257Z,982.52
2018-04-09T04:28:57.203Z,982.52
2018-04-09T04:29:57.178Z,982.54
2018-04-09T04:30:57.170Z,982.58
2018-04-09T04:31:57.165Z,982.58
2018-04-09T04:32:57.153Z,982.57
2018-04-09T04:33:57.088Z,982.52
2018-04-09T04:34:57.070Z,982.53
2018-04-09T04:35:57.057Z,982.49
2018-04-09T04:36:57.044Z,982.51
2018-04-09T04:37:57.020Z,982.49
2018-04-09T04:38:56.987Z,982.48
2018-04-09T04:39:56.974Z,982.49
2018-04-09T04:40:56.948Z,982.51
2018-04-09T04:41:56.906Z,982.56
2018-04-09T04:42:56.895Z,982.53
2018-04-09T04:43:56.896Z,982.57
2018-04-09T04:44:56.873Z,982.56
2018-04-09T04:45:56.841Z,982.53
2018-04-09T04:46:56.831Z,982.56
2018-04-09T04:47:56.808Z,982.56
2018-04-09T04:48:56.786Z,982.57
2018-04-09T04:49:56.815Z,982.56
2018-04-09T04:50:56.824Z,982.53
2018-04-09T04:51:56.725Z,982.59
2018-04-09T04:52:56.733Z,982.56
2018-04-09T04:53:56.679Z,982.57
2018-04-09T04:54:56.658Z,982.59
2018-04-09T04:55:56.655Z,982.60
2018-04-09T04:56:56.605Z,982.57
2018-04-09T04:57:56.640Z,982.56
2018-04-09T04:58:56.597Z,982.58
2018-04-09T04:59:56.531Z,982.59
2018-04-09T05:00:56.517Z,982.58
2018-04-09T05:01:56.485Z,982.58
2018-04-09T05:02:56.476Z,982.59
2018-04-09T05:03:56.445Z,982.57
2018-04-09T05:04:56.422Z,982.58
2018-04-09T05:05:56.460Z,982.58
2018-04-09T05:06:56.405Z,982.61
2018-04-09T05:07:56.425Z,982.60
2018-04-09T05:08:56.473Z,982.62
2018-04-09T05:09:56.374Z,982.63
2018-04-09T05:10:56.297Z,982.60
2018-04-09T05:11:56.298Z,982.61
2018-04-09T05:12:56.249Z,982.64
2018-04-09T05:13:56.245Z,982.64
2018-04-09T05:14:56.275Z,982.66
2018-04-09T05:15:56.220Z,982.64
2018-04-09T05:16:56.313Z,982.64
2018-04-09T05:17:56.157Z,982.62
2018-04-09T05:18:56.161Z,982.63
2018-04-09T05:19:56.132Z,982.65
2018-04-09T05:20:56.095Z,982.66
2018-04-09T05:21:56.112Z,982.67
2018-04-09T05:22:56.038Z,982.72
2018-04-09T05:23:56.028Z,982.70
2018-04-09T05:24:56.083Z,982.77
2018-04-09T05:25:55.981Z,982.72
2018-04-09T05:26:55.960Z,982.76
2018-04-09T05:27:55.979Z,982.76
2018-04-09T05:28:55.944Z,982.71
2018-04-09T05:29:55.890Z,982.72
2018-04-09T05:30:55.974Z,982.68
2018-04-09T05:31:55.899Z,982.70
2018-04-09T05:32:55.835Z,982.69
2018-04-09T05:33:55.827Z,982.65
2018-04-09T05:34:55.816Z,982.65
2018-04-09T05:35:55.831Z,982.67
2018-04-09T05:36:55.793Z,982.63
2018-04-09T05:37:55.728Z,982.63
2018-04-09T05:38:55.743Z,982.63
2018-04-09T05:39:55.697Z,982.63
2018-04-09T05:40:55.697Z,982.61
2018-04-09T05:41:55.698Z,982.57
2018-04-09T05:42:55.662Z,982.56
2018-04-09T05:43:55.668Z,982.54
2018-04-09T05:44:55.584Z,982.55
2018-04-09T05:45:55.565Z,982.53
2018-04-09T05:46:55.593Z,982.50
2018-04-09T05:47:55.570Z,982.53
2018-04-09T05:48:55.526Z,982.53
2018-04-09T05:49:55.491Z,982.52
2018-04-09T05:50:55.492Z,982.50
2018-04-09T05:51:55.444Z,982.50
2018-04-09T05:52:55.443Z,982.48
2018-04-09T05:53:55.394Z,982.46
2018-04-09T05:54:55.413Z,982.45
2018-04-09T05:55:55.397Z,982.44
2018-04-09T05:56:55.351Z,982.42
2018-04-09T05:57:55.345Z,982.43
2018-04-09T05:58:55.344Z,982.39
2018-04-09T05:59:55.327Z,982.39
2018-04-09T06:00:55.305Z,982.38
2018-04-09T06:01:55.293Z,982.38
2018-04-09T06:02:55.278Z,982.37
2018-04-09T06:03:55.200Z,982.36
2018-04-09T06:04:55.277Z,982.40
2018-04-09T06:05:55.156Z,982.35
2018-04-09T06:06:55.242Z,982.34
2018-04-09T06:07:55.286Z,982.30
2018-04-09T06:08:55.183Z,982.34
2018-04-09T06:09:55.082Z,982.31
2018-04-09T06:10:55.077Z,982.27
2018-04-09T06:11:55.037Z,982.26
2018-04-09T06:12:55.039Z,982.30
2018-04-09T06:13:55.034Z,982.27
2018-04-09T06:14:54.993Z,982.25
2018-04-09T06:15:54.993Z,982.28
2018-04-09T06:16:54.962Z,982.29
2018-04-09T06:17:54.930Z,982.28
2018-04-09T06:18:54.976Z,982.30
2018-04-09T06:19:54.945Z,982.27
2018-04-09T06:20:54.834Z,982.30
2018-04-09T06:21:54.837Z,982.29
2018-04-09T06:22:54.869Z,982.25
2018-04-09T06:23:54.835Z,982.28
2018-04-09T06:24:54.813Z,982.26
2018-04-09T06:25:54.832Z,982.27
2018-04-09T06:26:54.732Z,982.27
2018-04-09T06:27:54.739Z,982.29
2018-04-09T06:28:54.700Z,982.28
2018-04-09T06:29:54.683Z,982.30
2018-04-09T06:30:54.759Z,982.30
2018-04-09T06:31:54.731Z,982.27
2018-04-09T06:32:54.643Z,982.27
2018-04-09T06:33:54.616Z,982.23
2018-04-09T06:34:54.627Z,982.25
2018-04-09T06:35:54.558Z,982.30
2018-04-09T06:36:54.576Z,982.41
2018-04-09T06:37:54.559Z,982.52
2018-04-09T06:38:54.518Z,982.43
2018-04-09T06:39:54.505Z,982.33
2018-04-09T06:40:54.460Z,982.41
2018-04-09T06:41:54.466Z,982.43
2018-04-09T06:42:54.485Z,982.42
2018-04-09T06:43:54.414Z,982.52
2018-04-09T06:44:54.386Z,982.49
2018-04-09T06:45:54.388Z,982.55
2018-04-09T06:46:54.389Z,982.60
2018-04-09T06:47:54.393Z,982.54
2018-04-09T06:48:54.390Z,982.49
2018-04-09T06:49:54.335Z,982.48
2018-04-09T06:50:54.304Z,982.39
2018-04-09T06:51:54.343Z,982.46
2018-04-09T06:52:54.311Z,982.48
2018-04-09T06:53:54.333Z,982.42
2018-04-09T06:54:54.264Z,982.29
2018-04-09T06:55:54.256Z,982.16
2018-04-09T06:56:54.221Z,982.20
2018-04-09T06:57:54.231Z,982.32
2018-04-09T06:58:54.165Z,982.33
2018-04-09T06:59:54.146Z,982.30
2018-04-09T07:00:54.137Z,982.43
2018-04-09T07:01:54.125Z,982.40
2018-04-09T07:02:54.120Z,982.32
2018-04-09T07:03:54.079Z,982.38
2018-04-09T07:04:54.082Z,982.43
2018-04-09T07:05:54.053Z,982.42
2018-04-09T07:06:54.053Z,982.47
2018-04-09T07:07:54.034Z,982.50
2018-04-09T07:08:54.003Z,982.46
2018-04-09T07:09:53.993Z,982.48
2018-04-09T07:10:53.999Z,982.49
2018-04-09T07:11:54.012Z,982.44
2018-04-09T07:12:53.970Z,982.39
2018-04-09T07:13:53.986Z,982.37
2018-04-09T07:14:53.977Z,982.33
2018-04-09T07:15:53.917Z,982.31
2018-04-09T07:16:53.865Z,982.21
2018-04-09T07:17:53.891Z,982.30
2018-04-09T07:18:53.854Z,982.33
2018-04-09T07:19:53.830Z,982.31
2018-04-09T07:20:53.800Z,982.33
2018-04-09T07:21:53.875Z,982.38
2018-04-09T07:22:53.807Z,982.32
2018-04-09T07:23:53.800Z,982.23
2018-04-09T07:24:53.807Z,982.27
2018-04-09T07:25:53.737Z,982.27
2018-04-09T07:26:53.742Z,982.39
2018-04-09T07:27:53.750Z,982.38
2018-04-09T07:28:53.721Z,982.34
2018-04-09T07:29:53.688Z,982.35
2018-04-09T07:30:53.695Z,982.34
2018-04-09T07:31:53.654Z,982.38
2018-04-09T07:32:53.653Z,982.33
2018-04-09T07:33:53.640Z,982.39
2018-04-09T07:34:53.604Z,982.34
2018-04-09T07:35:53.599Z,982.33
2018-04-09T07:36:53.627Z,982.26
2018-04-09T07:37:53.594Z,982.19
2018-04-09T07:38:53.620Z,982.21
2018-04-09T07:39:53.544Z,982.25
2018-04-09T07:40:53.632Z,982.26
2018-04-09T07:41:53.540Z,982.26
2018-04-09T07:42:53.594Z,982.26
2018-04-09T07:43:53.524Z,982.31
2018-04-09T07:44:53.547Z,982.42
2018-04-09T07:45:53.483Z,982.47
2018-04-09T07:46:53.458Z,982.52
2018-04-09T07:47:53.487Z,982.57
2018-04-09T07:48:53.476Z,982.52
2018-04-09T07:49:53.412Z,982.60
2018-04-09T07:50:53.448Z,982.47
2018-04-09T07:51:53.468Z,982.45
2018-04-09T07:52:53.517Z,982.45
2018-04-09T07:53:53.377Z,982.45
2018-04-09T07:54:54.019Z,982.46
2018-04-09T07:55:54.025Z,982.53
2018-04-09T07:56:53.369Z,982.60
2018-04-09T07:57:53.326Z,982.47
2018-04-09T07:58:53.288Z,982.52
2018-04-09T07:59:53.286Z,982.47
2018-04-09T08:00:53.301Z,982.58
2018-04-09T08:01:53.315Z,982.57
2018-04-09T08:02:53.274Z,982.62
2018-04-09T08:03:53.233Z,982.58
2018-04-09T08:04:53.243Z,982.58
2018-04-09T08:05:53.224Z,982.54
2018-04-09T08:06:53.232Z,982.57
2018-04-09T08:07:53.191Z,982.50
2018-04-09T08:08:53.171Z,982.53
2018-04-09T08:09:53.174Z,982.58
2018-04-09T08:10:53.150Z,982.57
2018-04-09T08:11:53.139Z,982.53
2018-04-09T08:12:53.141Z,982.62
2018-04-09T08:13:53.118Z,982.60
2018-04-09T08:14:53.097Z,982.61
2018-04-09T08:15:53.109Z,982.55
2018-04-09T08:16:53.072Z,982.50
2018-04-09T08:17:53.133Z,982.43
2018-04-09T08:18:53.066Z,982.53
2018-04-09T08:19:53.038Z,982.55
2018-04-09T08:20:53.039Z,982.46
2018-04-09T08:21:53.028Z,982.52
2018-04-09T08:22:53.004Z,982.49
2018-04-09T08:23:52.984Z,982.54
2018-04-09T08:24:53.054Z,982.57
2018-04-09T08:25:53.026Z,982.58
2018-04-09T08:26:52.991Z,982.52
2018-04-09T08:27:52.952Z,982.53
2018-04-09T08:28:52.973Z,982.51
2018-04-09T08:29:52.977Z,982.55
2018-04-09T08:30:52.971Z,982.68
2018-04-09T08:31:52.938Z,982.61
2018-04-09T08:32:53.034Z,982.56
2018-04-09T08:33:53.001Z,982.54
2018-04-09T08:34:52.907Z,982.46
2018-04-09T08:35:52.846Z,982.49
2018-04-09T08:36:52.936Z,982.48
2018-04-09T08:37:52.890Z,982.46
2018-04-09T08:38:52.877Z,982.52
2018-04-09T08:39:52.842Z,982.46
2018-04-09T08:40:52.871Z,982.43
2018-04-09T08:41:52.803Z,982.44
2018-04-09T08:42:52.773Z,982.46
2018-04-09T08:43:52.867Z,982.41
2018-04-09T08:44:52.770Z,982.39
2018-04-09T08:45:52.764Z,982.44
2018-04-09T08:46:52.753Z,982.34
2018-04-09T08:47:52.759Z,982.30
2018-04-09T08:48:52.743Z,982.39
2018-04-09T08:49:52.737Z,982.41
2018-04-09T08:50:52.689Z,982.58
2018-04-09T08:51:52.676Z,982.48
2018-04-09T08:52:52.684Z,982.45
2018-04-09T08:53:52.682Z,982.52
2018-04-09T08:54:52.649Z,982.56
2018-04-09T08:55:52.631Z,982.59
2018-04-09T08:56:52.659Z,982.48
2018-04-09T08:57:52.627Z,982.49
2018-04-09T08:58:52.660Z,982.30
2018-04-09T08:59:52.606Z,982.31
2018-04-09T09:00:52.642Z,982.35
2018-04-09T09:01:52.664Z,982.31
2018-04-09T09:02:52.590Z,982.29
2018-04-09T09:03:52.706Z,982.34
2018-04-09T09:04:52.574Z,982.27
2018-04-09T09:05:52.558Z,982.22
2018-04-09T09:06:52.515Z,982.19
2018-04-09T09:07:52.521Z,982.23
2018-04-09T09:08:52.533Z,982.16
2018-04-09T09:09:52.552Z,982.13
2018-04-09T09:10:52.619Z,982.19
2018-04-09T09:11:52.545Z,982.16
2018-04-09T09:12:52.560Z,982.18
2018-04-09T09:13:52.441Z,982.19
2018-04-09T09:14:52.488Z,982.16
2018-04-09T09:15:52.429Z,982.33
2018-04-09T09:16:52.406Z,982.37
2018-04-09T09:17:52.448Z,982.44
2018-04-09T09:18:52.439Z,982.49
2018-04-09T09:19:52.398Z,982.41
2018-04-09T09:20:52.462Z,982.39
2018-04-09T09:21:52.367Z,982.37
2018-04-09T09:22:52.399Z,982.40
2018-04-09T09:23:52.354Z,982.36
2018-04-09T09:24:52.383Z,982.20
2018-04-09T09:25:52.348Z,982.14
2018-04-09T09:26:52.409Z,982.10
2018-04-09T09:27:52.327Z,982.06
2018-04-09T09:28:52.321Z,982.05
2018-04-09T09:29:52.303Z,982.04
2018-04-09T09:30:52.357Z,982.05
2018-04-09T09:31:52.312Z,982.09
2018-04-09T09:32:52.313Z,982.30
2018-04-09T09:33:52.278Z,982.11
2018-04-09T09:34:52.322Z,982.07
2018-04-09T09:35:52.294Z,982.06
2018-04-09T09:36:52.290Z,982.05
2018-04-09T09:37:52.236Z,982.10
2018-04-09T09:38:52.239Z,982.08
2018-04-09T09:39:52.215Z,982.04
2018-04-09T09:40:52.241Z,982.04
2018-04-09T09:41:52.240Z,982.10
2018-04-09T09:42:52.212Z,981.88
2018-04-09T09:43:52.238Z,981.83
2018-04-09T09:44:52.176Z,981.82
2018-04-09T09:45:52.260Z,981.82
2018-04-09T09:46:52.287Z,981.83
2018-04-09T09:47:52.231Z,981.79
2018-04-09T09:48:52.174Z,981.79
2018-04-09T09:49:52.173Z,981.77
2018-04-09T09:50:52.180Z,981.75
2018-04-09T09:51:52.142Z,981.81
2018-04-09T09:52:52.132Z,981.85
2018-04-09T09:53:52.131Z,981.82
2018-04-09T09:54:52.096Z,981.78
2018-04-09T09:55:52.174Z,981.96
2018-04-09T09:56:52.071Z,981.99
2018-04-09T09:57:52.097Z,981.96
2018-04-09T09:58:52.135Z,982.13
2018-04-09T09:59:52.053Z,982.12
2018-04-09T10:00:52.040Z,982.13
2018-04-09T10:01:52.093Z,982.09
2018-04-09T10:02:52.024Z,982.01
2018-04-09T10:03:52.079Z,982.11
2018-04-09T10:04:52.045Z,982.03
2018-04-09T10:05:52.031Z,981.90
2018-04-09T10:06:52.046Z,981.85
2018-04-09T10:07:52.030Z,981.82
2018-04-09T10:08:51.978Z,981.76
2018-04-09T10:09:52.009Z,981.73
2018-04-09T10:10:52.002Z,981.69
2018-04-09T10:11:52.015Z,981.62
2018-04-09T10:12:52.018Z,981.64
2018-04-09T10:13:51.983Z,981.59
2018-04-09T10:14:51.992Z,981.58
2018-04-09T10:15:52.051Z,981.55
2018-04-09T10:16:51.991Z,981.55
2018-04-09T10:17:51.905Z,981.51
2018-04-09T10:18:51.917Z,981.51
2018-04-09T10:19:51.974Z,981.51
2018-04-09T10:20:51.968Z,981.53
2018-04-09T10:21:51.920Z,981.49
2018-04-09T10:22:51.897Z,981.45
2018-04-09T10:23:51.884Z,981.38
2018-04-09T10:24:51.887Z,981.44
2018-04-09T10:25:51.877Z,981.40
2018-04-09T10:26:51.888Z,981.40
2018-04-09T10:27:51.919Z,981.48
2018-04-09T10:28:51.863Z,981.57
2018-04-09T10:29:51.897Z,981.71
2018-04-09T10:30:51.834Z,981.83
2018-04-09T10:31:51.835Z,981.87
2018-04-09T10:32:51.813Z,981.88
2018-04-09T10:33:51.830Z,981.89
2018-04-09T10:34:51.819Z,981.84
2018-04-09T10:35:51.759Z,981.82
2018-04-09T10:36:51.776Z,981.81
2018-04-09T10:37:51.773Z,981.76
2018-04-09T10:38:51.794Z,981.67
2018-04-09T10:39:51.764Z,981.63
2018-04-09T10:40:51.835Z,981.59
2018-04-09T10:41:51.840Z,981.58
2018-04-09T10:42:51.779Z,981.43
2018-04-09T10:43:51.796Z,981.30
2018-04-09T10:44:51.724Z,981.24
2018-04-09T10:45:51.717Z,981.20
2018-04-09T10:46:51.712Z,981.20
2018-04-09T10:47:51.793Z,981.21
2018-04-09T10:48:51.761Z,981.13
2018-04-09T10:49:51.755Z,981.09
2018-04-09T10:50:51.691Z,981.07
2018-04-09T10:51:51.692Z,981.05
2018-04-09T10:52:51.690Z,981.12
2018-04-09T10:53:51.709Z,981.07
2018-04-09T10:54:51.693Z,981.05
2018-04-09T10:55:51.699Z,981.02
2018-04-09T10:56:51.734Z,981.00
2018-04-09T10:57:51.703Z,981.01
2018-04-09T10:58:51.679Z,981.03
2018-04-09T10:59:51.660Z,981.30
2018-04-09T11:00:51.731Z,981.30
2018-04-09T11:01:51.662Z,981.44
2018-04-09T11:02:51.703Z,981.31
2018-04-09T11:03:51.644Z,981.29
2018-04-09T11:04:51.620Z,981.28
2018-04-09T11:05:51.618Z,981.24
2018-04-09T11:06:51.686Z,981.26
2018-04-09T11:07:51.622Z,981.17
2018-04-09T11:08:51.628Z,981.18
2018-04-09T11:09:51.594Z,981.17
2018-04-09T11:10:51.596Z,981.33
2018-04-09T11:11:51.644Z,981.32
2018-04-09T11:12:51.549Z,981.24
2018-04-09T11:13:51.587Z,981.19
2018-04-09T11:14:51.652Z,981.29
2018-04-09T11:15:51.570Z,981.31
2018-04-09T11:16:51.572Z,981.36
2018-04-09T11:17:51.533Z,981.24
2018-04-09T11:18:51.554Z,981.21
2018-04-09T11:19:51.573Z,981.11
2018-04-09T11:20:51.578Z,980.95
2018-04-09T11:21:51.667Z,980.85
2018-04-09T11:22:51.628Z,980.81
2018-04-09T11:23:51.625Z,980.82
2018-04-09T11:24:51.625Z,980.83
2018-04-09T11:25:51.616Z,980.84
2018-04-09T11:26:51.812Z,980.84
2018-04-09T11:27:51.565Z,980.75
2018-04-09T11:28:51.599Z,980.72
2018-04-09T11:29:51.574Z,980.71
2018-04-09T11:30:51.628Z,980.62
2018-04-09T11:31:51.578Z,980.65
2018-04-09T11:32:51.510Z,980.67
2018-04-09T11:33:51.501Z,980.68
2018-04-09T11:34:51.576Z,980.65
2018-04-09T11:35:51.466Z,980.67
2018-04-09T11:36:51.491Z,980.70
2018-04-09T11:37:51.428Z,980.70
2018-04-09T11:38:51.419Z,980.74
2018-04-09T11:39:51.443Z,980.78
2018-04-09T11:40:51.430Z,980.80
2018-04-09T11:41:51.438Z,980.76
2018-04-09T11:42:51.379Z,980.83
2018-04-09T11:43:51.380Z,980.80
2018-04-09T11:44:51.404Z,980.69
2018-04-09T11:45:51.388Z,980.58
2018-04-09T11:46:51.336Z,980.59
2018-04-09T11:47:51.370Z,980.55
2018-04-09T11:48:51.422Z,980.56
2018-04-09T11:49:51.394Z,980.61
2018-04-09T11:50:51.359Z,980.57
2018-04-09T11:51:52.093Z,980.51
2018-04-09T11:52:51.319Z,980.51
2018-04-09T11:53:51.327Z,980.52
2018-04-09T11:54:51.292Z,980.47
2018-04-09T11:55:51.299Z,980.51
2018-04-09T11:56:51.282Z,980.49
2018-04-09T11:58:12.306Z,980.47
2018-04-09T11:58:51.278Z,980.47
2018-04-09T11:59:51.285Z,980.47
2018-04-09T12:00:51.431Z,980.50
2018-04-09T12:01:51.225Z,980.51
2018-04-09T12:02:51.217Z,980.53
2018-04-09T12:03:51.237Z,980.50
2018-04-09T12:04:51.276Z,980.48
2018-04-09T12:05:51.231Z,980.51
2018-04-09T12:06:51.208Z,980.55
2018-04-09T12:07:51.232Z,980.56
2018-04-09T12:08:51.165Z,980.57
2018-04-09T12:09:51.188Z,980.54
2018-04-09T12:10:52.191Z,980.57
2018-04-09T12:12:51.192Z,980.61
2018-04-09T12:13:51.146Z,980.61
2018-04-09T12:14:51.131Z,980.68
2018-04-09T12:15:51.108Z,980.72
2018-04-09T12:16:51.119Z,980.69
2018-04-09T12:17:51.163Z,980.60
2018-04-09T12:18:51.096Z,980.57
2018-04-09T12:19:51.079Z,980.57
2018-04-09T12:20:51.106Z,980.53
2018-04-09T12:21:51.081Z,980.59
2018-04-09T12:22:51.104Z,980.62
2018-04-09T12:23:51.092Z,980.65
2018-04-09T12:24:51.044Z,980.65
2018-04-09T12:25:51.049Z,980.70
2018-04-09T12:26:51.005Z,980.72
2018-04-09T12:27:51.044Z,980.66
2018-04-09T12:28:51.017Z,980.62